Time,TemperatureF,DewpointF,PressureIn,WindDirection,WindDirectionDegrees,WindSpeedMPH,WindSpeedGustMPH,Humidity,HourlyPrecipIn,Conditions,Clouds,dailyrainin,SoftwareType,DateUTC
2013-01-22 00:04:00,5.2,-1.0,30.31,WNW,288,0.0,-999.0,74,-99.99,,,0.00,weatherlink.com 1.10,2013-01-22 06:04:00,
2013-01-22 00:19:00,5.1,-1.0,30.30,WNW,288,1.0,-999.0,75,-99.99,,,0.00,weatherlink.com 1.10,2013-01-22 06:19:00,
2013-01-22 00:34:00,5.0,-1.0,30.30,WNW,288,0.0,-999.0,75,-99.99,,,0.00,weatherlink.com 1.10,2013-01-22 06:34:00,
2013-01-22 00:49:00,4.9,-1.0,30.31,WNW,288,0.0,-999.0,75,-99.99,,,0.00,weatherlink.com 1.10,2013-01-22 06:49:00,
2013-01-22 01:04:00,4.9,-1.0,30.31,WNW,288,1.0,-999.0,75,-99.99,,,0.00,weatherlink.com 1.10,2013-01-22 07:04:00,
2013-01-22 01:19:00,4.9,-1.0,30.30,WNW,289,2.0,-999.0,76,-99.99,,,0.00,weatherlink.com 1.10,2013-01-22 07:19:00,
2013-01-22 01:34:00,4.8,-1.0,30.31,West,279,1.0,-999.0,76,-99.99,,,0.00,weatherlink.com 1.10,2013-01-22 07:34:00,
2013-01-22 01:49:00,4.6,-1.0,30.31,West,279,0.0,-999.0,76,-99.99,,,0.00,weatherlink.com 1.10,2013-01-22 07:49:00,
2013-01-22 02:04:00,4.5,-1.0,30.32,West,279,0.0,-999.0,77,-99.99,,,0.00,weatherlink.com 1.10,2013-01-22 08:04:00,
2013-01-22 02:19:00,4.4,-1.0,30.32,West,279,1.0,-999.0,77,-99.99,,,0.00,weatherlink.com 1.10,2013-01-22 08:19:00,
2013-01-22 02:34:00,4.3,-1.0,30.32,West,281,1.0,-999.0,78,-99.99,,,0.00,weatherlink.com 1.10,2013-01-22 08:34:00,
2013-01-22 02:49:00,4.2,-1.0,30.33,West,281,0.0,-999.0,78,-99.99,,,0.00,weatherlink.com 1.10,2013-01-22 08:49:00,
2013-01-22 03:04:00,4.2,-1.0,30.33,WNW,282,1.0,-999.0,78,-99.99,,,0.00,weatherlink.com 1.10,2013-01-22 09:04:00,
2013-01-22 03:19:00,4.2,-1.0,30.33,West,281,1.0,-999.0,79,-99.99,,,0.00,weatherlink.com 1.10,2013-01-22 09:19:00,
2013-01-22 03:34:00,4.1,-1.0,30.33,WNW,283,0.0,-999.0,79,-99.99,,,0.00,weatherlink.com 1.10,2013-01-22 09:34:00,
2013-01-22 03:49:00,4.0,-1.0,30.32,WNW,283,0.0,-999.0,79,-99.99,,,0.00,weatherlink.com 1.10,2013-01-22 09:49:00,
2013-01-22 04:04:00,3.8,-1.0,30.33,WNW,283,0.0,-999.0,79,-99.99,,,0.00,weatherlink.com 1.10,2013-01-22 10:04:00,
2013-01-22 04:19:00,3.7,-1.0,30.33,WNW,283,0.0,-999.0,79,-99.99,,,0.00,weatherlink.com 1.10,2013-01-22 10:19:00,
2013-01-22 04:34:00,3.6,-2.0,30.33,WNW,283,1.0,-999.0,79,-99.99,,,0.00,weatherlink.com 1.10,2013-01-22 10:34:00,
2013-01-22 04:49:00,3.6,-1.0,30.34,West,278,0.0,-999.0,80,-99.99,,,0.00,weatherlink.com 1.10,2013-01-22 10:49:00,
2013-01-22 05:04:00,3.5,-1.0,30.34,West,279,0.0,-999.0,80,-99.99,,,0.00,weatherlink.com 1.10,2013-01-22 11:04:00,
2013-01-22 05:19:00,3.4,-1.0,30.34,West,279,1.0,-999.0,80,-99.99,,,0.00,weatherlink.com 1.10,2013-01-22 11:19:00,
2013-01-22 05:34:00,3.4,-1.0,30.35,West,279,1.0,-999.0,80,-99.99,,,0.00,weatherlink.com 1.10,2013-01-22 11:34:00,
2013-01-22 05:49:00,3.3,-2.0,30.35,West,279,0.0,-999.0,80,-99.99,,,0.00,weatherlink.com 1.10,2013-01-22 11:49:00,
2013-01-22 06:04:00,3.2,-2.0,30.35,West,279,1.0,-999.0,80,-99.99,,,0.00,weatherlink.com 1.10,2013-01-22 12:04:00,
2013-01-22 06:19:00,3.1,-2.0,30.35,West,281,0.0,-999.0,80,-99.99,,,0.00,weatherlink.com 1.10,2013-01-22 12:19:00,
2013-01-22 06:34:00,3.0,-2.0,30.36,West,281,0.0,-999.0,80,-99.99,,,0.00,weatherlink.com 1.10,2013-01-22 12:34:00,
2013-01-22 06:49:00,2.9,-2.0,30.36,West,281,0.0,-999.0,81,-99.99,,,0.00,weatherlink.com 1.10,2013-01-22 12:49:00,
2013-01-22 07:04:00,2.7,-2.0,30.37,West,281,0.0,-999.0,81,-99.99,,,0.00,weatherlink.com 1.10,2013-01-22 13:04:00,
2013-01-22 07:19:00,2.7,-2.0,30.37,West,281,0.0,-999.0,81,-99.99,,,0.00,weatherlink.com 1.10,2013-01-22 13:19:00,
2013-01-22 07:34:00,2.7,-2.0,30.37,West,281,0.0,-999.0,82,-99.99,,,0.00,weatherlink.com 1.10,2013-01-22 13:34:00,
2013-01-22 07:49:00,2.9,1.0,30.38,West,281,0.0,-999.0,92,-99.99,,,0.00,weatherlink.com 1.10,2013-01-22 13:49:00,
2013-01-22 08:04:00,3.5,-1.0,30.38,WNW,286,3.0,-999.0,81,-99.99,,,0.00,weatherlink.com 1.10,2013-01-22 14:04:00,
2013-01-22 08:19:00,4.2,-1.0,30.39,WNW,290,1.0,-999.0,80,-99.99,,,0.00,weatherlink.com 1.10,2013-01-22 14:19:00,
2013-01-22 08:34:00,4.6,-1.0,30.39,WNW,296,1.0,-999.0,78,-99.99,,,0.00,weatherlink.com 1.10,2013-01-22 14:34:00,
2013-01-22 08:49:00,4.9,-1.0,30.39,WNW,292,5.0,-999.0,76,-99.99,,,0.00,weatherlink.com 1.10,2013-01-22 14:49:00,
2013-01-22 09:04:00,5.4,0.0,30.40,WNW,292,4.0,-999.0,77,-99.99,,,0.00,weatherlink.com 1.10,2013-01-22 15:04:00,
2013-01-22 09:19:00,6.2,0.0,30.39,WNW,292,2.0,-999.0,75,-99.99,,,0.00,weatherlink.com 1.10,2013-01-22 15:19:00,
2013-01-22 09:34:00,7.0,0.0,30.40,NW,305,0.0,-999.0,73,-99.99,,,0.00,weatherlink.com 1.10,2013-01-22 15:34:00,
2013-01-22 09:49:00,7.4,-1.0,30.40,NW,311,3.0,-999.0,70,-99.99,,,0.00,weatherlink.com 1.10,2013-01-22 15:49:00,
2013-01-22 10:04:00,7.8,-1.0,30.40,NNW,346,2.0,-999.0,66,-99.99,,,0.00,weatherlink.com 1.10,2013-01-22 16:04:00,
2013-01-22 10:19:00,8.2,-1.0,30.40,NW,306,2.0,-999.0,65,-99.99,,,0.00,weatherlink.com 1.10,2013-01-22 16:19:00,
2013-01-22 10:34:00,8.6,-3.0,30.41,NW,323,1.0,-999.0,60,-99.99,,,0.00,weatherlink.com 1.10,2013-01-22 16:34:00,
2013-01-22 10:49:00,8.9,-3.0,30.40,NNW,332,3.0,-999.0,60,-99.99,,,0.00,weatherlink.com 1.10,2013-01-22 16:49:00,
2013-01-22 11:04:00,10.1,-3.0,30.40,WNW,298,4.0,-999.0,56,-99.99,,,0.00,weatherlink.com 1.10,2013-01-22 17:04:00,
2013-01-22 11:19:00,9.9,-3.0,30.39,WNW,299,3.0,-999.0,56,-99.99,,,0.00,weatherlink.com 1.10,2013-01-22 17:19:00,
2013-01-22 11:34:00,10.2,-3.0,30.38,WNW,295,2.0,-999.0,56,-99.99,,,0.00,weatherlink.com 1.10,2013-01-22 17:34:00,
2013-01-22 11:49:00,10.3,-3.0,30.38,WNW,285,2.0,-999.0,55,-99.99,,,0.00,weatherlink.com 1.10,2013-01-22 17:49:00,
2013-01-22 12:04:00,11.6,-1.0,30.38,WNW,288,3.0,-999.0,56,-99.99,,,0.00,weatherlink.com 1.10,2013-01-22 18:04:00,
2013-01-22 12:19:00,11.4,-2.0,30.37,WNW,294,5.0,-999.0,54,-99.99,,,0.00,weatherlink.com 1.10,2013-01-22 18:19:00,
2013-01-22 12:34:00,11.6,-2.0,30.37,WNW,290,5.0,-999.0,54,-99.99,,,0.00,weatherlink.com 1.10,2013-01-22 18:34:00,
2013-01-22 12:49:00,12.5,-2.0,30.36,WSW,254,3.0,-999.0,53,-99.99,,,0.00,weatherlink.com 1.10,2013-01-22 18:49:00,
2013-01-22 13:04:00,13.2,-2.0,30.36,WNW,294,4.0,-999.0,52,-99.99,,,0.00,weatherlink.com 1.10,2013-01-22 19:04:00,
2013-01-22 13:19:00,13.7,-2.0,30.35,West,276,2.0,-999.0,50,-99.99,,,0.00,weatherlink.com 1.10,2013-01-22 19:19:00,
2013-01-22 13:34:00,14.0,-1.0,30.35,WSW,247,3.0,-999.0,51,-99.99,,,0.00,weatherlink.com 1.10,2013-01-22 19:34:00,
2013-01-22 13:49:00,13.9,-1.0,30.36,WNW,289,2.0,-999.0,51,-99.99,,,0.00,weatherlink.com 1.10,2013-01-22 19:49:00,
2013-01-22 14:04:00,15.2,-1.0,30.35,WSW,250,1.0,-999.0,49,-99.99,,,0.00,weatherlink.com 1.10,2013-01-22 20:04:00,
2013-01-22 14:19:00,15.0,-2.0,30.35,WNW,288,1.0,-999.0,48,-99.99,,,0.00,weatherlink.com 1.10,2013-01-22 20:19:00,
2013-01-22 14:34:00,14.7,-1.0,30.35,WSW,255,3.0,-999.0,51,-99.99,,,0.00,weatherlink.com 1.10,2013-01-22 20:34:00,
2013-01-22 14:49:00,14.6,-2.0,30.34,WNW,290,3.0,-999.0,49,-99.99,,,0.00,weatherlink.com 1.10,2013-01-22 20:49:00,
2013-01-22 15:04:00,14.5,-1.0,30.33,WNW,290,1.0,-999.0,50,-99.99,,,0.00,weatherlink.com 1.10,2013-01-22 21:04:00,
2013-01-22 15:19:00,14.7,-1.0,30.34,WSW,255,1.0,-999.0,51,-99.99,,,0.00,weatherlink.com 1.10,2013-01-22 21:19:00,
2013-01-22 15:34:00,14.5,-1.0,30.34,WNW,290,1.0,-999.0,51,-99.99,,,0.00,weatherlink.com 1.10,2013-01-22 21:34:00,
2013-01-22 15:49:00,14.5,-1.0,30.33,WNW,298,2.0,-999.0,51,-99.99,,,0.00,weatherlink.com 1.10,2013-01-22 21:49:00,
2013-01-22 16:04:00,14.4,0.0,30.32,WSW,246,0.0,-999.0,52,-99.99,,,0.00,weatherlink.com 1.10,2013-01-22 22:04:00,
2013-01-22 16:19:00,14.4,-1.0,30.33,WSW,254,2.0,-999.0,51,-99.99,,,0.00,weatherlink.com 1.10,2013-01-22 22:19:00,
2013-01-22 16:34:00,14.4,0.0,30.33,West,276,3.0,-999.0,52,-99.99,,,0.00,weatherlink.com 1.10,2013-01-22 22:34:00,
2013-01-22 16:49:00,14.3,-1.0,30.34,West,277,0.0,-999.0,52,-99.99,,,0.00,weatherlink.com 1.10,2013-01-22 22:49:00,
2013-01-22 17:04:00,14.3,0.0,30.34,WNW,283,1.0,-999.0,53,-99.99,,,0.00,weatherlink.com 1.10,2013-01-22 23:04:00,
2013-01-22 17:19:00,14.3,0.0,30.33,WNW,283,1.0,-999.0,54,-99.99,,,0.00,weatherlink.com 1.10,2013-01-22 23:19:00,
2013-01-22 17:34:00,14.3,-1.0,30.33,WNW,283,0.0,-999.0,52,-99.99,,,0.00,weatherlink.com 1.10,2013-01-22 23:34:00,
2013-01-22 17:49:00,14.4,0.0,30.34,WNW,283,1.0,-999.0,52,-99.99,,,0.00,weatherlink.com 1.10,2013-01-22 23:49:00,
2013-01-22 18:04:00,14.4,0.0,30.34,WNW,285,0.0,-999.0,52,-99.99,,,0.00,weatherlink.com 1.10,2013-01-23 00:04:00,
2013-01-22 18:19:00,14.4,0.0,30.34,WNW,286,0.0,-999.0,53,-99.99,,,0.00,weatherlink.com 1.10,2013-01-23 00:19:00,
2013-01-22 18:34:00,14.5,1.0,30.33,WNW,287,0.0,-999.0,54,-99.99,,,0.00,weatherlink.com 1.10,2013-01-23 00:34:00,
2013-01-22 18:49:00,14.4,0.0,30.32,WNW,286,0.0,-999.0,54,-99.99,,,0.00,weatherlink.com 1.10,2013-01-23 00:49:00,
2013-01-22 19:04:00,14.4,0.0,30.32,WNW,288,2.0,-999.0,54,-99.99,,,0.00,weatherlink.com 1.10,2013-01-23 01:04:00,
2013-01-22 19:19:00,14.4,0.0,30.32,WNW,292,0.0,-999.0,53,-99.99,,,0.00,weatherlink.com 1.10,2013-01-23 01:19:00,
2013-01-22 19:34:00,14.4,0.0,30.32,WNW,292,0.0,-999.0,54,-99.99,,,0.00,weatherlink.com 1.10,2013-01-23 01:34:00,
2013-01-22 19:49:00,14.4,1.0,30.32,WNW,292,2.0,-999.0,55,-99.99,,,0.00,weatherlink.com 1.10,2013-01-23 01:49:00,
2013-01-22 20:04:00,14.5,1.0,30.33,WNW,292,0.0,-999.0,55,-99.99,,,0.00,weatherlink.com 1.10,2013-01-23 02:04:00,
2013-01-22 20:19:00,14.5,1.0,30.32,WNW,292,0.0,-999.0,55,-99.99,,,0.00,weatherlink.com 1.10,2013-01-23 02:19:00,
2013-01-22 20:34:00,14.6,1.0,30.33,WNW,292,0.0,-999.0,56,-99.99,,,0.00,weatherlink.com 1.10,2013-01-23 02:34:00,
2013-01-22 20:49:00,14.6,1.0,30.33,WNW,292,0.0,-999.0,56,-99.99,,,0.00,weatherlink.com 1.10,2013-01-23 02:49:00,
2013-01-22 21:04:00,14.6,1.0,30.33,WNW,293,0.0,-999.0,56,-99.99,,,0.00,weatherlink.com 1.10,2013-01-23 03:04:00,
2013-01-22 21:19:00,14.6,1.0,30.34,WNW,292,0.0,-999.0,56,-99.99,,,0.00,weatherlink.com 1.10,2013-01-23 03:19:00,
2013-01-22 21:34:00,14.6,2.0,30.34,WNW,293,0.0,-999.0,57,-99.99,,,0.00,weatherlink.com 1.10,2013-01-23 03:34:00,
2013-01-22 21:49:00,14.6,1.0,30.35,WNW,293,1.0,-999.0,56,-99.99,,,0.00,weatherlink.com 1.10,2013-01-23 03:49:00,
2013-01-22 22:04:00,14.6,2.0,30.35,WNW,293,1.0,-999.0,57,-99.99,,,0.00,weatherlink.com 1.10,2013-01-23 04:04:00,
2013-01-22 22:19:00,14.3,2.0,30.35,WNW,293,0.0,-999.0,57,-99.99,,,0.00,weatherlink.com 1.10,2013-01-23 04:19:00,
2013-01-22 22:34:00,13.8,2.0,30.34,WNW,293,0.0,-999.0,59,-99.99,,,0.00,weatherlink.com 1.10,2013-01-23 04:34:00,
2013-01-22 22:49:00,13.4,2.0,30.35,WNW,293,0.0,-999.0,61,-99.99,,,0.00,weatherlink.com 1.10,2013-01-23 04:49:00,
2013-01-22 23:04:00,13.5,3.0,30.34,WNW,293,0.0,-999.0,62,-99.99,,,0.00,weatherlink.com 1.10,2013-01-23 05:04:00,
2013-01-22 23:19:00,13.7,3.0,30.34,WNW,293,0.0,-999.0,62,-99.99,,,0.00,weatherlink.com 1.10,2013-01-23 05:19:00,
2013-01-22 23:34:00,13.9,3.0,30.34,WNW,293,0.0,-999.0,62,-99.99,,,0.00,weatherlink.com 1.10,2013-01-23 05:34:00,
2013-01-22 23:49:00,14.1,4.0,30.34,WNW,293,0.0,-999.0,63,-99.99,,,0.00,weatherlink.com 1.10,2013-01-23 05:49:00,